Carson, Washington
Current Conditions -  °F | °C
As of 9:39 AM on Friday 28 Nov 2014 (Local Time) from K4S2 Reporting Station
Broken Clouds Broken Clouds  
Wind Chill: 52°   Ceiling: 5000
Heat Index: 52°   Visibility: 10mi
Dew Point: 52°   Wind: 0mph
Humidity: 100%   Direction: NA
Pressure: 29.59"   Gusts: NA
Location:  45.72°N, 121.82°W
Report Text: K4S2 281739Z AUTO 00000KT 10SM SCT042 BKN050 BKN075 11/11 A2959 RMK AO2 SLP034 T01100110
Loading
Personal Weather Stations






























Interactive Weather Map New forecast layout! Learn more

10-Day Weather Forecast

Advertisements
Track Severe Weather on mobile